Time;durP1;ratioP1;P1;durP2;ratioP2;P2;SDS_P1;SDS_P2;PMS_P1;PMS_P2;Temp;Humidity;BMP_temperature;BMP_pressure;BME280_temperature;BME280_humidity;BME280_pressure;Samples;Min_cycle;Max_cycle;Signal;HPM_P1;HPM_P2
2021/05/11 00:02:30;;;;;;;7.70;4.30;;;24.40;36.80;;;;;;6060055;28;83303;-65
2021/05/11 00:05:31;;;;;;;7.25;3.97;;;24.40;36.60;;;;;;6064734;28;83961;-65
2021/05/11 00:08:31;;;;;;;8.32;4.45;;;24.40;36.80;;;;;;6069639;28;80304;-66
2021/05/11 00:11:32;;;;;;;8.68;4.90;;;24.40;36.80;;;;;;6064885;28;81265;-66
2021/05/11 00:14:32;;;;;;;8.43;4.65;;;24.40;36.50;;;;;;6061740;28;80383;-66
2021/05/11 00:17:33;;;;;;;7.15;4.80;;;24.40;36.80;;;;;;6057410;28;80834;-66
2021/05/11 00:20:34;;;;;;;8.00;4.60;;;24.40;37.30;;;;;;6057278;28;80373;-66
2021/05/11 00:23:34;;;;;;;6.93;4.03;;;24.40;36.80;;;;;;6060754;28;83479;-67
2021/05/11 00:26:37;;;;;;;6.03;3.90;;;24.40;36.80;;;;;;6060705;28;80377;-66
2021/05/11 00:29:38;;;;;;;6.95;4.45;;;24.40;37.00;;;;;;6065029;28;80627;-66
2021/05/11 00:32:39;;;;;;;8.10;4.20;;;24.40;37.00;;;;;;6065292;28;81462;-66
2021/05/11 00:35:39;;;;;;;9.40;3.80;;;24.40;37.10;;;;;;6063844;28;80619;-66
2021/05/11 00:38:40;;;;;;;9.35;4.10;;;24.40;37.10;;;;;;6066623;28;80759;-66
2021/05/11 00:41:40;;;;;;;10.38;4.40;;;24.40;37.30;;;;;;6061420;28;83218;-66
2021/05/11 00:44:41;;;;;;;8.45;4.53;;;24.40;37.20;;;;;;6060743;28;81076;-66
2021/05/11 00:47:41;;;;;;;9.63;4.38;;;24.30;37.20;;;;;;6069266;28;80275;-66
2021/05/11 00:50:42;;;;;;;6.95;3.85;;;24.30;37.40;;;;;;6065483;28;81481;-67
2021/05/11 00:53:44;;;;;;;5.93;4.10;;;24.30;37.40;;;;;;6065965;28;80456;-67
2021/05/11 00:56:45;;;;;;;10.73;4.63;;;24.30;37.50;;;;;;6065795;28;81685;-67
2021/05/11 00:59:45;;;;;;;7.13;4.15;;;24.30;37.60;;;;;;6067338;28;80378;-66
2021/05/11 01:02:46;;;;;;;8.95;4.68;;;24.30;37.80;;;;;;6069174;28;85095;-66
2021/05/11 01:05:46;;;;;;;6.95;4.32;;;24.30;37.70;;;;;;6062369;28;80683;-66
2021/05/11 01:08:47;;;;;;;9.40;4.47;;;24.30;37.60;;;;;;6065147;28;81866;-66
2021/05/11 01:11:47;;;;;;;9.15;4.60;;;24.30;37.60;;;;;;6062700;28;80274;-66
2021/05/11 01:14:48;;;;;;;8.63;4.85;;;24.30;37.70;;;;;;6066332;28;80872;-67
2021/05/11 01:17:59;;;;;;;11.70;4.18;;;24.30;37.80;;;;;;6060835;28;81818;-66
2021/05/11 01:21:15;;;;;;;6.90;4.47;;;24.30;38.40;;;;;;6064240;28;80155;-66
2021/05/11 01:50:17;;;;;;;13.15;4.57;;;24.20;38.10;;;;;;6060396;28;80312;-66
2021/05/11 02:22:59;;;;;;;16.33;4.82;;;24.10;38.10;;;;;;6058799;28;80661;-66
2021/05/11 02:26:00;;;;;;;7.30;4.90;;;24.10;38.10;;;;;;6062426;28;80584;-66
2021/05/11 02:29:00;;;;;;;6.15;3.72;;;24.10;38.00;;;;;;6061556;28;80055;-66
2021/05/11 02:32:01;;;;;;;4.72;3.35;;;24.10;37.80;;;;;;6066042;28;89381;-67
2021/05/11 02:35:01;;;;;;;10.07;3.78;;;24.10;37.90;;;;;;6059592;28;80406;-67
2021/05/11 02:38:02;;;;;;;6.35;3.95;;;24.10;38.10;;;;;;6061842;28;80640;-67
2021/05/11 02:41:02;;;;;;;7.55;4.13;;;24.20;38.20;;;;;;6061960;28;80590;-67
2021/05/11 02:44:03;;;;;;;6.88;3.83;;;24.10;38.10;;;;;;6070901;28;80460;-67
2021/05/11 02:47:03;;;;;;;7.75;3.95;;;24.10;38.40;;;;;;6074966;28;80419;-67
2021/05/11 02:50:05;;;;;;;8.05;4.03;;;24.10;38.30;;;;;;6067278;28;81422;-66
2021/05/11 02:53:06;;;;;;;11.65;4.50;;;24.10;38.50;;;;;;6068933;28;90145;-67
2021/05/11 02:56:06;;;;;;;7.22;3.75;;;24.10;38.20;;;;;;6068525;28;80431;-67
2021/05/11 02:59:07;;;;;;;8.82;4.05;;;24.10;38.30;;;;;;6070549;28;81401;-66
2021/05/11 03:02:08;;;;;;;6.43;3.63;;;24.10;38.30;;;;;;6075615;28;80550;-66
2021/05/11 03:05:09;;;;;;;7.88;3.97;;;24.10;38.30;;;;;;6070239;28;82288;-66
2021/05/11 03:08:09;;;;;;;7.20;3.78;;;24.10;38.30;;;;;;6069334;28;80259;-65
2021/05/11 03:11:10;;;;;;;6.80;3.92;;;24.10;38.30;;;;;;6073472;28;80854;-66
2021/05/11 03:14:11;;;;;;;8.00;4.22;;;24.10;38.10;;;;;;6076709;28;83257;-66
2021/05/11 03:17:11;;;;;;;11.32;3.83;;;24.10;38.40;;;;;;6069233;28;80505;-66
2021/05/11 03:20:12;;;;;;;6.20;3.78;;;24.10;38.00;;;;;;6069408;28;80621;-66
2021/05/11 03:23:12;;;;;;;7.43;3.95;;;24.10;38.00;;;;;;6068273;28;80334;-66
2021/05/11 03:26:13;;;;;;;8.93;4.25;;;24.10;38.20;;;;;;6073293;28;80502;-66
2021/05/11 03:29:13;;;;;;;6.57;3.97;;;24.10;38.20;;;;;;6072463;28;80427;-67
2021/05/11 03:32:14;;;;;;;7.10;3.97;;;24.00;38.30;;;;;;6069867;28;82073;-67
2021/05/11 03:35:14;;;;;;;6.60;3.78;;;24.00;38.50;;;;;;6065672;28;80378;-66
2021/05/11 03:38:15;;;;;;;9.18;3.97;;;24.00;38.50;;;;;;6068596;28;80835;-67
2021/05/11 03:41:17;;;;;;;7.43;3.75;;;24.00;38.20;;;;;;6072582;28;81377;-67
2021/05/11 03:44:24;;;;;;;6.45;3.90;;;24.00;38.40;;;;;;6071464;28;80446;-66
2021/05/11 03:47:27;;;;;;;9.85;4.20;;;24.00;38.30;;;;;;6071955;28;80717;-66
2021/05/11 03:50:27;;;;;;;13.48;4.43;;;24.00;38.40;;;;;;6075134;28;80495;-66
2021/05/11 03:53:28;;;;;;;8.65;4.30;;;24.00;38.30;;;;;;6066830;28;80571;-66
2021/05/11 03:56:28;;;;;;;8.93;3.85;;;24.00;38.30;;;;;;6067422;28;80092;-67
2021/05/11 03:59:29;;;;;;;8.38;4.22;;;24.00;38.30;;;;;;6060183;28;81026;-66
2021/05/11 04:02:29;;;;;;;9.98;4.57;;;24.00;38.30;;;;;;6071736;28;81802;-66
2021/05/11 04:05:31;;;;;;;9.30;4.70;;;24.00;38.30;;;;;;6066520;28;82495;-66
2021/05/11 04:08:36;;;;;;;10.25;4.75;;;24.00;38.40;;;;;;6062009;28;80534;-65
2021/05/11 04:18:02;;;;;;;10.38;4.18;;;24.00;38.80;;;;;;6061197;28;84923;-66
2021/05/11 04:21:03;;;;;;;10.77;4.45;;;24.00;39.00;;;;;;6064026;28;80413;-67
2021/05/11 04:24:03;;;;;;;8.38;3.80;;;24.00;39.10;;;;;;6066087;28;80450;-67
2021/05/11 04:27:04;;;;;;;7.38;4.15;;;24.10;38.60;;;;;;6059391;28;80717;-65
2021/05/11 04:30:04;;;;;;;10.35;4.32;;;24.10;39.00;;;;;;6067351;28;80355;-66
2021/05/11 04:33:05;;;;;;;11.50;4.63;;;24.10;38.70;;;;;;6053922;28;81736;-65
2021/05/11 04:36:06;;;;;;;9.55;3.75;;;24.10;39.40;;;;;;6061414;28;80627;-66
2021/05/11 04:39:06;;;;;;;6.60;3.83;;;24.20;40.80;;;;;;6063370;28;80559;-64
2021/05/11 04:42:07;;;;;;;9.60;4.28;;;24.20;40.50;;;;;;6059457;28;82968;-66
2021/05/11 04:45:07;;;;;;;6.65;3.90;;;24.20;41.60;;;;;;6061693;28;80348;-66
2021/05/11 04:48:08;;;;;;;11.77;4.57;;;24.30;43.40;;;;;;6061668;28;80528;-65
2021/05/11 04:51:08;;;;;;;11.65;4.45;;;24.30;42.40;;;;;;6060099;28;80436;-65
2021/05/11 04:54:10;;;;;;;8.23;3.97;;;24.30;45.60;;;;;;6065693;28;80393;-65
2021/05/11 04:57:11;;;;;;;8.63;4.32;;;24.30;44.80;;;;;;6070236;28;82820;-65
2021/05/11 05:00:11;;;;;;;8.52;3.85;;;24.30;44.50;;;;;;6061562;28;80526;-65
2021/05/11 05:03:16;;;;;;;10.48;4.53;;;24.40;43.80;;;;;;6065967;28;81263;-65
2021/05/11 05:06:16;;;;;;;8.85;4.05;;;24.40;43.30;;;;;;6063994;28;80792;-66
2021/05/11 05:09:17;;;;;;;7.80;4.60;;;24.40;43.10;;;;;;6062713;28;81326;-65
2021/05/11 05:12:17;;;;;;;9.88;4.22;;;24.40;43.30;;;;;;6058942;28;80253;-66
2021/05/11 05:15:18;;;;;;;8.23;4.47;;;24.40;43.50;;;;;;6062137;28;81033;-67
2021/05/11 05:18:18;;;;;;;9.77;3.97;;;24.40;43.50;;;;;;6062138;28;80846;-67
2021/05/11 05:21:19;;;;;;;5.80;3.92;;;24.40;43.70;;;;;;6066193;28;83570;-66
2021/05/11 05:24:28;;;;;;;10.40;4.63;;;24.50;43.60;;;;;;6055244;28;80428;-66
2021/05/11 05:30:38;;;;;;;13.60;4.63;;;24.50;43.20;;;;;;6061051;28;80927;-64
2021/05/11 05:33:38;;;;;;;14.98;4.30;;;24.50;43.30;;;;;;6059626;28;80230;-64
2021/05/11 05:36:39;;;;;;;6.70;4.45;;;24.60;43.30;;;;;;6067664;28;81476;-66
2021/05/11 05:39:46;;;;;;;8.27;4.38;;;24.60;43.30;;;;;;6067396;28;81672;-65
2021/05/11 05:42:46;;;;;;;11.85;4.30;;;24.60;43.30;;;;;;6064163;28;82241;-65
2021/05/11 05:45:47;;;;;;;8.82;4.28;;;24.60;43.40;;;;;;6066971;28;80444;-65
2021/05/11 05:48:48;;;;;;;10.23;4.60;;;24.60;42.90;;;;;;6061251;28;80403;-66
2021/05/11 05:51:50;;;;;;;9.88;4.38;;;24.60;42.80;;;;;;6059981;28;82962;-66
2021/05/11 05:54:51;;;;;;;8.45;4.03;;;24.60;43.10;;;;;;6066782;28;80290;-65
2021/05/11 05:57:51;;;;;;;7.53;3.85;;;24.60;43.00;;;;;;6061346;28;80287;-67
2021/05/11 06:00:56;;;;;;;7.35;3.95;;;24.60;42.90;;;;;;6052541;28;80385;-67
2021/05/11 06:03:57;;;;;;;7.65;3.67;;;24.60;42.70;;;;;;6061524;28;80193;-65
2021/05/11 06:06:57;;;;;;;6.03;3.42;;;24.60;42.50;;;;;;6054186;28;80635;-66
2021/05/11 06:09:58;;;;;;;5.97;3.22;;;24.60;42.10;;;;;;6061834;28;80486;-66
2021/05/11 06:13:06;;;;;;;5.30;3.58;;;24.60;42.60;;;;;;6064996;28;80768;-66
2021/05/11 06:19:25;;;;;;;6.38;3.70;;;24.70;42.40;;;;;;6048613;28;80919;-64
2021/05/11 06:22:26;;;;;;;10.73;3.45;;;24.70;42.30;;;;;;6058447;28;80661;-64
2021/05/11 06:25:26;;;;;;;5.75;3.20;;;24.70;41.90;;;;;;6061376;28;80582;-66
2021/05/11 06:28:27;;;;;;;7.07;3.42;;;24.70;42.30;;;;;;6057885;28;80506;-67
2021/05/11 06:31:28;;;;;;;11.23;4.05;;;24.70;41.90;;;;;;6061805;28;80783;-67
2021/05/11 06:34:28;;;;;;;8.30;3.38;;;24.70;41.30;;;;;;6062318;28;80430;-67
2021/05/11 06:37:29;;;;;;;8.95;3.75;;;24.60;41.40;;;;;;6065183;28;80294;-68
2021/05/11 06:40:31;;;;;;;9.13;3.65;;;24.60;41.40;;;;;;6063523;28;80888;-65
2021/05/11 06:43:33;;;;;;;12.43;4.22;;;24.60;41.40;;;;;;6060708;28;80451;-67
2021/05/11 06:53:11;;;;;;;18.52;5.00;;;24.60;42.10;;;;;;6060882;28;81074;-65
2021/05/11 06:56:14;;;;;;;11.23;4.28;;;24.50;42.20;;;;;;6060117;28;80946;-66
2021/05/11 06:59:14;;;;;;;11.20;4.40;;;24.60;42.00;;;;;;6060579;28;80417;-66
2021/05/11 07:02:15;;;;;;;14.57;4.47;;;24.60;42.00;;;;;;6062380;28;81568;-67
2021/05/11 07:05:15;;;;;;;17.50;4.63;;;24.60;42.30;;;;;;6063248;28;80637;-68
2021/05/11 07:08:30;;;;;;;14.88;4.63;;;24.60;42.30;;;;;;6063302;28;81340;-64
2021/05/11 07:14:37;;;;;;;11.55;4.28;;;24.60;42.50;;;;;;6055855;28;81917;-65
2021/05/11 07:17:38;;;;;;;10.52;4.45;;;24.60;42.20;;;;;;6063409;28;80713;-66
2021/05/11 07:20:38;;;;;;;8.68;4.43;;;24.60;42.60;;;;;;6064213;28;80442;-66
2021/05/11 07:23:39;;;;;;;6.88;3.38;;;24.60;42.20;;;;;;6068360;28;80636;-66
2021/05/11 07:27:00;;;;;;;7.82;3.70;;;24.60;43.00;;;;;;6072000;28;80683;-66
2021/05/11 07:30:14;;;;;;;6.57;3.70;;;24.60;43.20;;;;;;6068469;28;80600;-66
2021/05/11 07:33:16;;;;;;;9.70;3.70;;;24.60;42.70;;;;;;6069737;28;85966;-66
2021/05/11 07:36:17;;;;;;;5.82;3.33;;;24.60;42.50;;;;;;6062357;28;80673;-66
2021/05/11 07:39:19;;;;;;;7.07;4.03;;;24.50;42.70;;;;;;6065257;28;81732;-66
2021/05/11 07:42:19;;;;;;;11.40;3.78;;;24.60;42.80;;;;;;6063667;28;81381;-66
2021/05/11 07:45:33;;;;;;;15.32;4.10;;;24.60;43.10;;;;;;6062954;28;81349;-65
2021/05/11 08:05:23;;;;;;;13.27;3.28;;;24.60;43.20;;;;;;6063068;28;81246;-65
2021/05/11 08:27:47;;;;;;;7.80;3.17;;;24.70;42.90;;;;;;6064622;28;80573;-66
2021/05/11 08:30:47;;;;;;;;;;;24.70;43.10;;;;;;6066840;28;81412;-66
2021/05/11 08:33:48;;;;;;;8.02;3.03;;;24.70;43.00;;;;;;6068625;28;78847;-65
2021/05/11 08:36:48;;;;;;;9.43;3.38;;;24.70;43.20;;;;;;6062698;28;80245;-65
2021/05/11 08:39:49;;;;;;;13.80;3.70;;;24.80;42.80;;;;;;6059837;28;80829;-66
2021/05/11 08:42:50;;;;;;;118.68;34.15;;;24.80;42.70;;;;;;6061465;28;80329;-66
2021/05/11 08:45:50;;;;;;;247.20;73.50;;;24.80;42.70;;;;;;6057525;28;82809;-65
2021/05/11 08:48:52;;;;;;;342.17;104.72;;;24.90;42.50;;;;;;6061038;28;84206;-66
2021/05/11 08:52:08;;;;;;;314.15;96.20;;;24.90;41.80;;;;;;6049168;28;85696;-66
2021/05/11 09:05:34;;;;;;;72.68;22.70;;;25.10;40.20;;;;;;6058177;28;84316;-66
2021/05/11 09:15:39;;;;;;;32.80;11.18;;;25.20;40.40;;;;;;6048630;28;86404;-66
2021/05/11 09:28:06;;;;;;;15.60;5.75;;;25.30;41.20;;;;;;6064076;28;80999;-66
2021/05/11 09:31:21;;;;;;;21.25;5.63;;;25.30;41.10;;;;;;6060274;28;80671;-66
2021/05/11 09:55:00;;;;;;;10.07;3.72;;;25.50;41.30;;;;;;6074865;28;83641;-65
2021/05/11 09:58:10;;;;;;;11.70;2.92;;;25.50;40.90;;;;;;6061943;28;83382;-65
2021/05/11 10:27:00;;;;;;;9.48;3.72;;;25.70;39.50;;;;;;6061564;28;81418;-64
2021/05/11 10:44:06;;;;;;;6.28;2.50;;;26.30;37.30;;;;;;6055968;28;81112;-64
2021/05/11 10:47:08;;;;;;;6.28;2.53;;;26.50;35.80;;;;;;6060610;28;80339;-65
2021/05/11 10:50:08;;;;;;;6.53;2.30;;;26.60;35.50;;;;;;6062795;28;80910;-65
2021/05/11 10:53:09;;;;;;;7.10;2.72;;;26.70;34.70;;;;;;6059146;28;81097;-65
2021/05/11 10:56:09;;;;;;;5.75;2.38;;;26.70;35.30;;;;;;6058644;28;80484;-66
2021/05/11 10:59:13;;;;;;;7.15;2.28;;;26.70;36.00;;;;;;6058639;28;81702;-65
2021/05/11 11:02:25;;;;;;;5.95;2.80;;;26.70;35.30;;;;;;6064078;28;80290;-66
2021/05/11 11:05:25;;;;;;;8.18;2.45;;;26.70;35.10;;;;;;6070969;28;81489;-66
2021/05/11 11:08:29;;;;;;;6.28;2.53;;;26.80;35.50;;;;;;6072591;28;82874;-66
2021/05/11 11:11:31;;;;;;;21.33;3.03;;;26.80;35.50;;;;;;6070828;28;80694;-65
2021/05/11 11:14:32;;;;;;;6.15;3.08;;;26.70;35.50;;;;;;6068546;28;80901;-65
2021/05/11 11:17:32;;;;;;;11.30;2.55;;;26.90;34.20;;;;;;6067775;28;80236;-65
2021/05/11 11:20:38;;;;;;;5.85;2.58;;;27.00;33.70;;;;;;6069709;28;80338;-66
2021/05/11 11:23:39;;;;;;;9.18;2.92;;;27.00;33.80;;;;;;6059396;28;82659;-66
2021/05/11 11:26:43;;;;;;;6.97;3.03;;;26.90;34.20;;;;;;6064656;28;80372;-67
2021/05/11 11:29:43;;;;;;;7.28;2.60;;;27.00;34.70;;;;;;6063994;28;80389;-66
2021/05/11 11:32:44;;;;;;;4.35;2.50;;;27.00;34.60;;;;;;6062900;28;80625;-66
2021/05/11 11:35:45;;;;;;;7.60;2.53;;;27.00;35.50;;;;;;6065390;28;80427;-66
2021/05/11 11:38:45;;;;;;;10.02;3.30;;;27.00;35.30;;;;;;6059542;28;80339;-65
2021/05/11 11:41:46;;;;;;;5.75;2.90;;;27.10;35.00;;;;;;6061364;28;81525;-65
2021/05/11 11:44:48;;;;;;;8.95;2.67;;;27.20;34.20;;;;;;6066056;28;80974;-64
2021/05/11 11:47:51;;;;;;;7.82;2.90;;;27.10;34.60;;;;;;6067772;28;80622;-66
2021/05/11 11:50:52;;;;;;;12.82;4.03;;;27.10;34.70;;;;;;6063643;28;80445;-65
2021/05/11 11:53:58;;;;;;;14.40;3.20;;;27.00;35.30;;;;;;6063771;28;80515;-64
2021/05/11 12:00:08;;;;;;;5.57;2.92;;;26.70;35.70;;;;;;6062354;28;84171;-65
2021/05/11 12:03:14;;;;;;;5.78;2.85;;;26.80;34.90;;;;;;6063450;28;80343;-66
2021/05/11 12:06:17;;;;;;;7.85;3.10;;;26.80;35.30;;;;;;6061468;28;80459;-65
2021/05/11 12:09:18;;;;;;;11.32;2.80;;;27.00;34.70;;;;;;6071154;28;81522;-66
2021/05/11 12:12:19;;;;;;;8.25;3.60;;;27.00;34.70;;;;;;6062449;28;82162;-66
2021/05/11 12:15:20;;;;;;;9.20;3.45;;;26.90;35.80;;;;;;6059263;28;80263;-66
2021/05/11 12:18:21;;;;;;;13.63;3.90;;;27.00;34.90;;;;;;6059090;28;80432;-66
2021/05/11 12:21:21;;;;;;;26.17;3.95;;;27.10;35.30;;;;;;6060975;28;81208;-66
2021/05/11 12:24:22;;;;;;;11.93;3.38;;;27.00;35.70;;;;;;6056537;28;80435;-66
2021/05/11 12:27:22;;;;;;;4.68;2.60;;;26.90;36.10;;;;;;6061112;28;80631;-66
2021/05/11 12:30:23;;;;;;;6.45;2.40;;;27.00;35.40;;;;;;6064353;28;80671;-67
2021/05/11 12:33:23;;;;;;;5.38;3.30;;;27.00;35.10;;;;;;6058535;28;82519;-65
2021/05/11 12:36:25;;;;;;;11.02;3.47;;;26.90;35.60;;;;;;6066957;28;80479;-66
2021/05/11 12:43:02;;;;;;;5.28;2.58;;;26.80;36.50;;;;;;5996103;28;80431;-63
2021/05/11 12:46:02;;;;;;;21.45;3.55;;;26.70;35.90;;;;;;6057710;28;80424;-63
2021/05/11 12:49:03;;;;;;;8.73;3.30;;;26.90;36.30;;;;;;6058488;28;81414;-64
2021/05/11 12:52:07;;;;;;;7.05;2.72;;;26.90;35.80;;;;;;6053355;28;80996;-67
2021/05/11 12:55:17;;;;;;;6.32;2.78;;;26.90;36.20;;;;;;6054868;28;81108;-66
2021/05/11 12:58:27;;;;;;;7.05;3.85;;;26.80;36.50;;;;;;6054279;28;80269;-65
2021/05/11 13:01:30;;;;;;;9.60;3.35;;;26.70;36.40;;;;;;6055610;28;80719;-66
2021/05/11 13:21:18;;;;;;;4.82;2.83;;;26.40;38.60;;;;;;6055315;28;81431;-67
2021/05/11 13:33:51;;;;;;;8.18;2.72;;;26.40;38.30;;;;;;6056821;28;81481;-66
2021/05/11 13:36:51;;;;;;;7.25;2.60;;;26.40;38.30;;;;;;6053643;28;80892;-67
2021/05/11 13:39:52;;;;;;;8.10;3.28;;;26.40;38.40;;;;;;6059789;28;82755;-65
2021/05/11 13:42:52;;;;;;;4.13;2.70;;;26.40;38.40;;;;;;6058079;28;82118;-65
2021/05/11 13:45:53;;;;;;;7.22;3.50;;;26.40;38.70;;;;;;6063348;28;80741;-62
2021/05/11 13:48:53;;;;;;;6.05;3.20;;;26.40;38.50;;;;;;6058256;28;80772;-65
2021/05/11 13:51:54;;;;;;;6.90;3.45;;;26.40;38.50;;;;;;6065128;28;80397;-67
2021/05/11 13:54:58;;;;;;;12.02;4.18;;;26.40;38.70;;;;;;6060705;28;80595;-64
2021/05/11 14:04:22;;;;;;;12.60;4.22;;;26.40;38.60;;;;;;6060338;28;81714;-64
2021/05/11 14:07:22;;;;;;;12.52;4.15;;;26.30;38.70;;;;;;6060300;28;80533;-64
2021/05/11 14:10:23;;;;;;;14.10;4.43;;;26.30;38.90;;;;;;6058554;28;80664;-63
2021/05/11 14:13:24;;;;;;;21.10;4.72;;;26.30;38.80;;;;;;6058265;28;80491;-63
2021/05/11 14:16:24;;;;;;;14.30;4.00;;;26.30;39.10;;;;;;6056353;28;80257;-63
2021/05/11 14:19:27;;;;;;;4.85;3.38;;;26.20;39.10;;;;;;6060349;28;80696;-62
2021/05/11 14:22:28;;;;;;;11.80;3.28;;;26.20;39.00;;;;;;6059113;28;81650;-64
2021/05/11 14:25:29;;;;;;;7.28;2.80;;;26.20;38.80;;;;;;6060227;28;81170;-64
2021/05/11 14:28:29;;;;;;;6.05;3.40;;;26.20;38.70;;;;;;6064622;28;80102;-64
2021/05/11 14:31:30;;;;;;;7.85;3.42;;;26.30;38.90;;;;;;6055908;28;84045;-63
2021/05/11 14:34:30;;;;;;;4.43;3.25;;;26.20;39.40;;;;;;6064796;28;80457;-64
2021/05/11 14:37:31;;;;;;;6.03;3.30;;;26.20;39.00;;;;;;6061262;28;83259;-64
2021/05/11 14:40:31;;;;;;;22.27;4.45;;;26.20;39.30;;;;;;6062166;28;84465;-66
2021/05/11 14:43:32;;;;;;;9.27;3.00;;;26.20;39.40;;;;;;6057530;28;80607;-65
2021/05/11 14:46:32;;;;;;;7.43;3.53;;;26.20;40.00;;;;;;6056502;28;80364;-65
2021/05/11 14:49:33;;;;;;;11.68;3.22;;;26.20;39.70;;;;;;6060998;28;81190;-66
2021/05/11 14:52:33;;;;;;;9.52;3.22;;;26.20;39.70;;;;;;6057432;28;81135;-66
2021/05/11 14:55:34;;;;;;;6.55;2.95;;;26.20;39.70;;;;;;6061398;28;80610;-65
2021/05/11 14:58:34;;;;;;;12.38;3.40;;;26.20;39.60;;;;;;6060814;28;80382;-65
2021/05/11 15:01:35;;;;;;;10.75;3.65;;;26.20;39.60;;;;;;6059212;28;80669;-62
2021/05/11 15:04:35;;;;;;;5.53;2.60;;;26.20;39.30;;;;;;6059750;28;80770;-64
2021/05/11 15:07:37;;;;;;;5.93;2.90;;;26.20;39.10;;;;;;6057820;28;86166;-65
2021/05/11 15:10:37;;;;;;;5.55;2.97;;;26.30;38.90;;;;;;6059061;28;80414;-66
2021/05/11 15:13:39;;;;;;;5.00;2.88;;;26.30;38.10;;;;;;6059603;28;81220;-65
2021/05/11 15:16:40;;;;;;;11.95;3.10;;;26.30;38.70;;;;;;6057586;28;80811;-67
2021/05/11 15:19:41;;;;;;;13.57;3.83;;;26.30;38.10;;;;;;6060515;28;80499;-66
2021/05/11 15:22:41;;;;;;;5.78;2.72;;;26.30;38.30;;;;;;6057132;28;80465;-67
2021/05/11 15:25:42;;;;;;;6.93;3.83;;;26.30;38.40;;;;;;6061031;28;80978;-69
2021/05/11 15:28:42;;;;;;;5.88;2.80;;;26.30;37.80;;;;;;6058228;28;82789;-66
2021/05/11 15:31:45;;;;;;;10.85;3.28;;;26.30;37.90;;;;;;6059955;28;80631;-67
2021/05/11 15:34:45;;;;;;;6.35;2.40;;;26.30;38.20;;;;;;6057525;28;83145;-68
2021/05/11 15:37:47;;;;;;;10.73;3.25;;;26.20;37.80;;;;;;6060487;28;80619;-68
2021/05/11 15:40:47;;;;;;;7.95;2.53;;;26.20;37.90;;;;;;6056173;28;80917;-66
2021/05/11 15:43:48;;;;;;;4.72;3.13;;;26.10;38.00;;;;;;6058439;28;80651;-64
2021/05/11 15:46:48;;;;;;;7.03;2.63;;;26.20;38.00;;;;;;6063275;28;80764;-66
2021/05/11 15:49:49;;;;;;;6.75;2.70;;;26.20;37.90;;;;;;6063302;28;82205;-68
2021/05/11 15:52:49;;;;;;;6.25;2.83;;;26.20;38.30;;;;;;6067393;28;80820;-67
2021/05/11 15:55:50;;;;;;;7.97;2.40;;;26.20;37.60;;;;;;6063782;28;81277;-68
2021/05/11 15:58:52;;;;;;;5.55;2.95;;;26.20;37.80;;;;;;6065669;28;80611;-67
2021/05/11 16:01:52;;;;;;;11.65;2.63;;;26.20;38.10;;;;;;6062739;28;80493;-67
2021/05/11 16:04:53;;;;;;;8.07;2.85;;;26.20;38.30;;;;;;6067086;28;81590;-67
2021/05/11 16:07:53;;;;;;;6.47;2.95;;;26.20;38.50;;;;;;6063091;28;80558;-67
2021/05/11 16:10:55;;;;;;;3.92;2.22;;;26.20;38.30;;;;;;6060515;28;81462;-67
2021/05/11 16:13:55;;;;;;;6.78;3.53;;;26.20;38.40;;;;;;6063814;28;80619;-67
2021/05/11 16:16:56;;;;;;;8.07;3.20;;;26.10;38.10;;;;;;6062014;28;80373;-65
2021/05/11 16:19:56;;;;;;;5.63;2.90;;;26.10;38.30;;;;;;6061047;28;80396;-67
2021/05/11 16:22:57;;;;;;;4.30;2.90;;;26.20;38.70;;;;;;6059042;28;80443;-67
2021/05/11 16:25:57;;;;;;;6.10;2.38;;;26.10;39.00;;;;;;6058384;28;80879;-65
2021/05/11 16:28:58;;;;;;;5.78;2.83;;;26.10;39.60;;;;;;6060985;28;81110;-66
2021/05/11 16:31:59;;;;;;;10.40;2.85;;;26.10;40.50;;;;;;6061430;28;80938;-67
2021/05/11 16:34:59;;;;;;;11.90;3.35;;;26.10;40.90;;;;;;6071701;28;81363;-66
2021/05/11 16:38:00;;;;;;;12.95;3.30;;;26.10;41.00;;;;;;6059673;28;80755;-66
2021/05/11 16:41:00;;;;;;;8.68;2.63;;;26.10;40.90;;;;;;6053710;28;80602;-68
2021/05/11 16:44:01;;;;;;;8.82;2.65;;;26.10;40.90;;;;;;6060352;28;81013;-69
2021/05/11 16:47:01;;;;;;;5.55;2.95;;;26.10;41.00;;;;;;6056022;28;80550;-66
2021/05/11 16:50:02;;;;;;;4.00;2.50;;;26.10;41.70;;;;;;6051122;28;82078;-66
2021/05/11 16:53:04;;;;;;;6.68;2.67;;;26.20;41.90;;;;;;6059499;28;80346;-66
2021/05/11 16:56:04;;;;;;;4.82;3.22;;;26.10;41.90;;;;;;6064241;28;80633;-65
2021/05/11 16:59:05;;;;;;;8.98;3.30;;;26.10;42.10;;;;;;6065455;28;81153;-65
2021/05/11 17:02:05;;;;;;;3.67;2.50;;;26.10;42.90;;;;;;6068509;28;80126;-65
2021/05/11 17:05:07;;;;;;;4.82;2.60;;;26.10;42.70;;;;;;6062397;28;81891;-67
2021/05/11 17:08:07;;;;;;;6.38;3.10;;;26.10;42.10;;;;;;6065059;28;80211;-64
2021/05/11 17:11:08;;;;;;;5.70;2.20;;;26.10;41.90;;;;;;6056718;28;80720;-65
2021/05/11 17:14:08;;;;;;;4.68;2.95;;;26.10;42.30;;;;;;6054377;28;80304;-67
2021/05/11 17:17:09;;;;;;;8.15;2.78;;;26.10;42.10;;;;;;6057307;28;80790;-64
2021/05/11 17:20:09;;;;;;;12.95;3.05;;;26.10;42.60;;;;;;6060454;28;82404;-66
2021/05/11 17:23:10;;;;;;;5.07;2.97;;;26.00;43.60;;;;;;6060937;28;81075;-65
2021/05/11 17:26:10;;;;;;;11.00;2.95;;;26.10;43.90;;;;;;6054071;28;81521;-65
2021/05/11 17:29:16;;;;;;;7.63;2.70;;;26.10;43.50;;;;;;6065977;28;85068;-66
2021/05/11 17:32:18;;;;;;;9.37;3.10;;;26.10;43.80;;;;;;6055269;28;87436;-66
2021/05/11 17:35:18;;;;;;;5.68;3.17;;;26.10;43.50;;;;;;6065505;28;81535;-66
2021/05/11 17:38:21;;;;;;;7.40;3.25;;;26.10;43.30;;;;;;6059264;28;81136;-65
2021/05/11 17:41:21;;;;;;;8.38;2.97;;;26.20;43.30;;;;;;6063417;28;80768;-66
2021/05/11 17:44:22;;;;;;;7.35;2.97;;;26.10;42.90;;;;;;6057206;28;81834;-66
2021/05/11 17:47:22;;;;;;;6.13;3.40;;;26.10;41.90;;;;;;6061287;28;80270;-66
2021/05/11 17:50:24;;;;;;;5.63;3.05;;;26.20;41.60;;;;;;6054223;28;80933;-66
2021/05/11 17:53:24;;;;;;;7.68;3.50;;;26.10;41.20;;;;;;6063238;28;80209;-66
2021/05/11 17:56:30;;;;;;;10.43;3.88;;;26.20;40.30;;;;;;6057958;28;80555;-67
2021/05/11 17:59:30;;;;;;;9.68;4.03;;;26.10;39.90;;;;;;6059673;28;82879;-66
2021/05/11 18:02:31;;;;;;;11.27;4.20;;;26.10;39.30;;;;;;6063214;28;80581;-65
2021/05/11 18:05:33;;;;;;;6.22;3.28;;;26.10;38.40;;;;;;6055205;28;80191;-68
2021/05/11 18:08:34;;;;;;;12.68;3.58;;;26.10;38.20;;;;;;6054845;28;80614;-65
2021/05/11 18:11:35;;;;;;;11.45;3.67;;;26.10;38.30;;;;;;6057045;28;82252;-64
2021/05/11 18:14:35;;;;;;;9.07;4.00;;;26.10;39.00;;;;;;6056809;28;81655;-66
2021/05/11 18:17:36;;;;;;;12.68;4.47;;;26.10;38.00;;;;;;6057598;28;81006;-65
2021/05/11 18:20:36;;;;;;;10.98;3.95;;;26.10;39.00;;;;;;6053605;28;80478;-66
2021/05/11 18:23:37;;;;;;;10.02;3.72;;;26.10;39.20;;;;;;6061632;28;81779;-64
2021/05/11 18:26:37;;;;;;;9.98;3.67;;;26.10;39.20;;;;;;6063645;28;80606;-66
2021/05/11 18:29:38;;;;;;;8.20;3.42;;;26.10;39.50;;;;;;6065229;28;80849;-70
2021/05/11 18:32:38;;;;;;;9.98;3.35;;;26.10;39.60;;;;;;6058283;28;80917;-65
2021/05/11 18:35:39;;;;;;;7.28;3.35;;;26.10;39.90;;;;;;6060663;28;80907;-68
2021/05/11 18:38:44;;;;;;;7.55;3.30;;;26.10;39.90;;;;;;6064243;28;80518;-66
2021/05/11 18:41:45;;;;;;;8.50;3.50;;;26.00;39.50;;;;;;6065235;28;80710;-67
2021/05/11 18:44:45;;;;;;;5.93;3.90;;;26.00;39.90;;;;;;6060239;28;80354;-67
2021/05/11 18:47:55;;;;;;;12.25;3.60;;;26.00;40.00;;;;;;6062604;28;81384;-68
2021/05/11 18:50:56;;;;;;;9.02;3.38;;;26.00;40.90;;;;;;6064881;28;80276;-66
2021/05/11 18:53:57;;;;;;;11.48;4.13;;;26.00;40.00;;;;;;6058633;28;84289;-64
2021/05/11 18:56:58;;;;;;;11.43;4.72;;;26.00;40.30;;;;;;6056725;28;80910;-65
2021/05/11 18:59:58;;;;;;;9.77;4.10;;;26.00;40.60;;;;;;6052927;28;81418;-65
2021/05/11 19:02:59;;;;;;;10.82;3.80;;;26.00;40.30;;;;;;6065980;28;81459;-66
2021/05/11 19:05:59;;;;;;;11.80;4.07;;;26.00;39.70;;;;;;6064509;28;81240;-68
2021/05/11 19:09:02;;;;;;;10.68;3.92;;;26.00;39.80;;;;;;6055329;28;80814;-67
2021/05/11 19:12:03;;;;;;;9.90;4.07;;;26.00;40.50;;;;;;6062935;28;87371;-65
2021/05/11 19:15:03;;;;;;;9.32;4.32;;;26.00;40.20;;;;;;6065526;28;80982;-65
2021/05/11 19:18:04;;;;;;;15.30;4.70;;;26.00;40.00;;;;;;6063200;28;81450;-66
2021/05/11 19:21:04;;;;;;;17.98;7.35;;;25.90;40.40;;;;;;6052637;28;83057;-67
2021/05/11 19:24:05;;;;;;;22.70;7.57;;;26.00;40.30;;;;;;6062008;28;80588;-66
2021/05/11 19:27:06;;;;;;;27.92;8.40;;;25.90;40.10;;;;;;6056303;28;80518;-68
2021/05/11 19:30:07;;;;;;;45.58;13.75;;;25.90;40.40;;;;;;6068196;28;81483;-68
2021/05/11 19:33:07;;;;;;;53.97;15.35;;;25.90;40.70;;;;;;6065574;28;82879;-68
2021/05/11 19:36:08;;;;;;;50.80;15.57;;;25.90;41.10;;;;;;6059438;28;83580;-67
2021/05/11 19:39:09;;;;;;;47.60;13.95;;;25.90;41.40;;;;;;6073985;28;84226;-67
2021/05/11 19:42:09;;;;;;;43.90;15.15;;;25.90;41.10;;;;;;6059730;28;83660;-67